Time;durP1;ratioP1;P1;durP2;ratioP2;P2;SDS_P1;SDS_P2;PMS_P1;PMS_P2;Temp;Humidity;BMP_temperature;BMP_pressure;BME280_temperature;BME280_humidity;BME280_pressure;Samples;Min_cycle;Max_cycle;Signal;HPM_P1;HPM_P2
2021/12/11 00:04:14;;;;;;;2.20;1.70;;;6.50;46.20;;;;;;10382232;28;20618;-73
2021/12/11 00:09:20;;;;;;;1.87;1.60;;;6.50;46.10;;;;;;10383160;28;20238;-72
2021/12/11 00:14:27;;;;;;;1.80;1.70;;;6.60;46.10;;;;;;10376088;28;20704;-73
2021/12/11 00:19:35;;;;;;;2.07;1.57;;;6.50;46.10;;;;;;10383219;28;20230;-73
2021/12/11 00:24:39;;;;;;;1.87;1.50;;;6.60;46.20;;;;;;10380635;28;20241;-73
2021/12/11 00:29:43;;;;;;;2.23;1.33;;;6.60;46.20;;;;;;10378876;28;20241;-72
2021/12/11 00:34:47;;;;;;;2.17;1.60;;;6.50;46.10;;;;;;10379305;28;20233;-73
2021/12/11 00:39:55;;;;;;;2.37;1.80;;;6.50;46.10;;;;;;10380507;28;20234;-72
2021/12/11 00:45:04;;;;;;;2.80;1.63;;;6.50;46.20;;;;;;10381349;28;20238;-72
2021/12/11 00:50:10;;;;;;;3.13;1.90;;;6.50;46.20;;;;;;10380693;28;20242;-73
2021/12/11 00:55:20;;;;;;;2.33;1.60;;;6.50;46.20;;;;;;10378475;28;20593;-73
2021/12/11 01:00:25;;;;;;;1.77;1.50;;;6.50;46.20;;;;;;10379962;28;20242;-73
2021/12/11 01:05:36;;;;;;;1.77;1.50;;;6.50;46.10;;;;;;10382905;28;20604;-73
2021/12/11 01:10:40;;;;;;;1.80;1.70;;;6.50;46.20;;;;;;10380631;28;20238;-73
2021/12/11 01:15:53;;;;;;;1.70;1.50;;;6.60;46.00;;;;;;10379536;28;20237;-73
2021/12/11 01:21:03;;;;;;;2.17;1.47;;;6.60;45.90;;;;;;10381091;28;20309;-72
2021/12/11 01:26:09;;;;;;;2.00;1.50;;;6.60;45.80;;;;;;10364896;28;20222;-73
2021/12/11 01:31:17;;;;;;;2.00;1.53;;;6.70;45.90;;;;;;10374098;28;20237;-73
2021/12/11 01:36:21;;;;;;;2.30;1.40;;;6.70;45.80;;;;;;10374348;28;20810;-73
2021/12/11 01:41:25;;;;;;;2.10;1.60;;;6.70;45.80;;;;;;10377993;28;20244;-73
2021/12/11 01:46:29;;;;;;;1.70;1.50;;;6.60;45.70;;;;;;10376401;28;20233;-73
2021/12/11 01:51:36;;;;;;;1.83;1.50;;;6.60;45.80;;;;;;10372810;28;20662;-73
2021/12/11 01:56:43;;;;;;;2.67;1.50;;;6.60;45.80;;;;;;10372951;28;20225;-72
2021/12/11 02:01:54;;;;;;;4.63;1.67;;;6.70;45.70;;;;;;10374001;28;20846;-73
2021/12/11 02:07:02;;;;;;;1.30;1.20;;;6.70;45.80;;;;;;10377109;28;20299;-73
2021/12/11 02:12:11;;;;;;;1.47;1.27;;;6.60;45.80;;;;;;10370970;28;20583;-73
2021/12/11 02:17:20;;;;;;;2.03;1.47;;;6.60;45.80;;;;;;10376819;28;20230;-73
2021/12/11 02:22:27;;;;;;;2.50;1.40;;;6.60;45.70;;;;;;10375995;28;20240;-73
2021/12/11 02:27:32;;;;;;;2.83;1.60;;;6.60;45.80;;;;;;10371513;28;20322;-73
2021/12/11 02:32:39;;;;;;;1.40;1.30;;;6.60;45.80;;;;;;10370453;28;20305;-73
2021/12/11 02:37:50;;;;;;;1.13;1.10;;;6.60;45.80;;;;;;10374110;28;20256;-72
2021/12/11 02:42:57;;;;;;;1.50;1.40;;;6.60;45.90;;;;;;10376378;28;20238;-73
2021/12/11 02:48:05;;;;;;;1.63;1.40;;;6.60;45.80;;;;;;10374281;28;20234;-72
2021/12/11 02:53:16;;;;;;;1.60;1.50;;;6.60;45.80;;;;;;10373132;28;20597;-72
2021/12/11 02:58:23;;;;;;;1.40;1.17;;;6.60;45.80;;;;;;10370239;28;20245;-72
2021/12/11 03:03:31;;;;;;;1.50;1.40;;;6.60;45.80;;;;;;10380009;28;20227;-73
2021/12/11 03:08:36;;;;;;;1.30;1.20;;;6.50;45.60;;;;;;10374396;28;20235;-73
2021/12/11 03:13:40;;;;;;;2.10;1.50;;;6.50;45.70;;;;;;10376841;28;20676;-73
2021/12/11 03:18:43;;;;;;;1.10;1.10;;;6.50;45.80;;;;;;10372730;28;20233;-73
2021/12/11 03:23:49;;;;;;;1.67;1.30;;;6.40;45.80;;;;;;10373455;28;20230;-73
2021/12/11 03:28:52;;;;;;;1.30;1.20;;;6.40;45.90;;;;;;10373970;28;20600;-73
2021/12/11 03:33:59;;;;;;;2.67;1.30;;;6.40;45.90;;;;;;10380997;28;20233;-72
2021/12/11 03:39:08;;;;;;;1.40;1.30;;;6.50;45.80;;;;;;10378406;28;20770;-73
2021/12/11 03:44:12;;;;;;;1.70;1.10;;;6.40;45.90;;;;;;10384149;28;20235;-73
2021/12/11 03:49:18;;;;;;;1.50;1.00;;;6.40;45.80;;;;;;10380942;28;20727;-73
2021/12/11 03:54:25;;;;;;;1.53;1.40;;;6.40;45.90;;;;;;10375575;28;20244;-72
2021/12/11 03:59:30;;;;;;;1.20;1.20;;;6.40;45.80;;;;;;10373736;28;20233;-73
2021/12/11 04:04:37;;;;;;;1.27;1.17;;;6.40;45.90;;;;;;10382066;28;20244;-73
2021/12/11 04:09:42;;;;;;;1.20;1.20;;;6.50;45.90;;;;;;10383716;28;20260;-72
2021/12/11 04:14:48;;;;;;;1.30;1.20;;;6.50;45.90;;;;;;10383465;28;20233;-72
2021/12/11 04:19:54;;;;;;;1.77;1.40;;;6.50;46.00;;;;;;10378164;28;20708;-73
2021/12/11 04:24:59;;;;;;;1.60;1.43;;;6.50;45.90;;;;;;10387252;28;20244;-73
2021/12/11 04:30:04;;;;;;;3.53;1.63;;;6.50;45.80;;;;;;10380744;28;20249;-73
2021/12/11 04:35:10;;;;;;;1.50;1.40;;;6.50;45.80;;;;;;10380748;28;20242;-73
2021/12/11 04:40:19;;;;;;;1.80;1.30;;;6.60;45.90;;;;;;10382566;28;20240;-72
2021/12/11 04:45:27;;;;;;;1.37;1.27;;;6.60;45.90;;;;;;10374624;28;20242;-73
2021/12/11 04:50:40;;;;;;;1.27;1.17;;;6.60;45.80;;;;;;10375634;28;20233;-72
2021/12/11 04:55:57;;;;;;;1.70;1.60;;;6.60;45.60;;;;;;10374547;28;20242;-73
2021/12/11 05:01:12;;;;;;;1.50;1.40;;;6.70;46.20;;;;;;10380900;28;20245;-72
2021/12/11 05:06:35;;;;;;;1.37;1.10;;;6.70;45.40;;;;;;10379962;28;20226;-73
2021/12/11 05:11:43;;;;;;;1.77;1.30;;;6.70;45.30;;;;;;10376021;28;20229;-72
2021/12/11 05:16:47;;;;;;;1.53;1.43;;;6.70;45.30;;;;;;10380556;28;20659;-72
2021/12/11 05:21:50;;;;;;;1.77;1.43;;;6.70;45.10;;;;;;10377213;28;20241;-73
2021/12/11 05:26:55;;;;;;;1.50;1.40;;;6.70;45.10;;;;;;10377278;28;20240;-72
2021/12/11 05:31:59;;;;;;;1.20;1.20;;;6.60;45.10;;;;;;10374367;28;20245;-72
2021/12/11 05:37:03;;;;;;;1.30;1.20;;;6.60;45.10;;;;;;10377070;28;20261;-73
2021/12/11 05:42:08;;;;;;;1.23;1.20;;;6.50;45.10;;;;;;10376289;28;20708;-73
2021/12/11 05:47:12;;;;;;;1.00;1.00;;;6.40;45.20;;;;;;10373949;28;20234;-73
2021/12/11 05:52:16;;;;;;;1.00;1.00;;;6.30;45.20;;;;;;10374666;28;20226;-72
2021/12/11 05:57:22;;;;;;;1.00;1.00;;;6.20;45.20;;;;;;10375090;28;20241;-73
2021/12/11 06:02:28;;;;;;;1.20;1.00;;;6.10;45.50;;;;;;10376731;28;20620;-73
2021/12/11 06:07:32;;;;;;;1.00;1.00;;;6.10;45.60;;;;;;10376685;28;20320;-73
2021/12/11 06:12:37;;;;;;;1.10;1.00;;;6.00;45.80;;;;;;10382512;28;20241;-73
2021/12/11 06:17:42;;;;;;;0.90;0.90;;;6.00;45.90;;;;;;10376009;28;20240;-73
2021/12/11 06:22:45;;;;;;;0.90;0.90;;;6.00;45.90;;;;;;10377208;28;20249;-72
2021/12/11 06:27:50;;;;;;;1.30;1.20;;;5.90;45.80;;;;;;10378300;28;20249;-73
2021/12/11 06:32:54;;;;;;;1.20;1.10;;;5.90;46.00;;;;;;10369952;28;20234;-73
2021/12/11 06:37:59;;;;;;;1.17;1.17;;;5.90;46.00;;;;;;10373139;28;20230;-73
2021/12/11 06:43:04;;;;;;;2.97;2.30;;;5.80;46.10;;;;;;10373093;28;20233;-73
2021/12/11 06:48:08;;;;;;;1.50;1.40;;;5.80;46.30;;;;;;10369690;28;20241;-73
2021/12/11 06:53:18;;;;;;;1.20;1.20;;;5.80;46.40;;;;;;10374708;28;20237;-73
2021/12/11 06:58:23;;;;;;;1.83;1.70;;;5.80;46.60;;;;;;10370115;28;20226;-73
2021/12/11 07:03:26;;;;;;;1.40;1.30;;;5.80;46.30;;;;;;10372510;28;20757;-73
2021/12/11 07:08:30;;;;;;;1.90;1.20;;;5.80;47.00;;;;;;10376978;28;20238;-71
2021/12/11 07:13:35;;;;;;;1.60;1.50;;;5.80;46.30;;;;;;10379399;28;20226;-71
2021/12/11 07:18:38;;;;;;;1.50;1.50;;;5.80;46.40;;;;;;10379178;28;20234;-76
2021/12/11 07:23:45;;;;;;;1.90;1.80;;;5.80;46.30;;;;;;10375303;28;20234;-73
2021/12/11 07:28:53;;;;;;;2.03;1.93;;;5.80;46.50;;;;;;10376600;28;20238;-73
2021/12/11 07:33:57;;;;;;;1.93;1.80;;;5.90;46.50;;;;;;10372413;28;20230;-76
2021/12/11 07:39:07;;;;;;;1.80;1.70;;;5.90;46.10;;;;;;10379160;28;20230;-76
2021/12/11 07:44:12;;;;;;;1.77;1.67;;;5.90;46.40;;;;;;10385484;28;20225;-76
2021/12/11 07:49:16;;;;;;;1.97;1.87;;;5.90;46.30;;;;;;10374801;28;20233;-77
2021/12/11 07:54:20;;;;;;;2.10;2.00;;;6.00;46.00;;;;;;10379907;28;20230;-74
2021/12/11 07:59:25;;;;;;;2.17;2.07;;;6.00;46.10;;;;;;10382568;28;20679;-74
2021/12/11 08:04:28;;;;;;;2.57;2.47;;;6.00;46.20;;;;;;10378831;28;20230;-74
2021/12/11 08:09:31;;;;;;;2.37;2.27;;;6.00;46.20;;;;;;10375241;28;21001;-72
2021/12/11 08:14:36;;;;;;;2.83;2.63;;;6.10;46.20;;;;;;10376129;28;20730;-71
2021/12/11 08:19:39;;;;;;;2.83;2.63;;;6.10;46.20;;;;;;10380135;28;20317;-76
2021/12/11 08:24:43;;;;;;;2.67;2.57;;;6.20;46.10;;;;;;10382887;28;20230;-76
2021/12/11 08:29:52;;;;;;;3.00;2.80;;;6.20;46.10;;;;;;10381647;28;20244;-76
2021/12/11 08:34:55;;;;;;;4.00;3.70;;;6.20;46.20;;;;;;10387353;28;20244;-75
2021/12/11 08:39:59;;;;;;;3.57;3.37;;;6.20;46.00;;;;;;10375956;28;20229;-75
2021/12/11 08:45:06;;;;;;;4.77;4.47;;;6.30;46.00;;;;;;10383374;28;20229;-74
2021/12/11 08:50:13;;;;;;;8.27;7.47;;;6.30;46.10;;;;;;10379606;28;20240;-75
2021/12/11 08:55:20;;;;;;;7.53;6.83;;;6.30;46.00;;;;;;10377839;28;20218;-76
2021/12/11 09:00:31;;;;;;;5.43;5.03;;;6.20;45.90;;;;;;10375520;28;20238;-76
2021/12/11 09:05:39;;;;;;;4.93;4.53;;;6.20;46.00;;;;;;10376366;28;20230;-75
2021/12/11 09:10:47;;;;;;;5.60;5.20;;;6.20;45.90;;;;;;10380826;28;20723;-77
2021/12/11 09:15:56;;;;;;;5.17;4.77;;;6.20;46.00;;;;;;10378871;28;20244;-77
2021/12/11 09:21:03;;;;;;;5.43;5.03;;;6.20;46.00;;;;;;10376459;28;20265;-77
2021/12/11 09:26:16;;;;;;;6.07;5.57;;;6.20;46.40;;;;;;10371992;28;20222;-73
2021/12/11 09:31:26;;;;;;;6.20;5.70;;;6.20;46.00;;;;;;10368012;28;20301;-73
2021/12/11 09:36:33;;;;;;;6.37;5.87;;;6.20;46.00;;;;;;10368899;28;20360;-73
2021/12/11 09:41:36;;;;;;;5.70;5.30;;;6.20;46.00;;;;;;10377526;28;20230;-73
2021/12/11 09:46:45;;;;;;;5.50;5.10;;;6.20;45.80;;;;;;10369914;28;20609;-73
2021/12/11 09:51:51;;;;;;;5.93;5.53;;;6.20;46.00;;;;;;10375162;28;20235;-73
2021/12/11 09:56:57;;;;;;;5.23;4.83;;;6.10;45.90;;;;;;10368836;28;20241;-74
2021/12/11 10:02:07;;;;;;;5.73;5.33;;;6.10;45.90;;;;;;10374921;28;20228;-73
2021/12/11 10:07:26;;;;;;;6.40;5.90;;;6.10;46.00;;;;;;10369445;28;20218;-73
2021/12/11 10:12:34;;;;;;;5.37;4.97;;;6.10;46.10;;;;;;10369737;28;20251;-73
2021/12/11 10:17:44;;;;;;;5.50;5.00;;;6.10;46.00;;;;;;10367135;28;20708;-73
2021/12/11 10:22:48;;;;;;;7.27;6.67;;;6.10;46.20;;;;;;10365335;28;20750;-73
2021/12/11 10:27:51;;;;;;;6.40;5.90;;;6.10;45.90;;;;;;10367297;28;20325;-73
2021/12/11 10:32:57;;;;;;;6.80;6.20;;;6.10;46.60;;;;;;10367550;28;20915;-73
2021/12/11 10:38:02;;;;;;;7.43;6.83;;;6.10;46.00;;;;;;10370064;28;20230;-73
2021/12/11 10:43:11;;;;;;;7.17;6.60;;;6.20;46.00;;;;;;10375212;28;20218;-73
2021/12/11 10:48:20;;;;;;;6.70;6.20;;;6.20;46.20;;;;;;10377201;28;20237;-73
2021/12/11 10:53:27;;;;;;;6.97;6.37;;;6.20;46.10;;;;;;10380587;28;20230;-73
2021/12/11 10:58:35;;;;;;;6.40;5.90;;;6.30;46.10;;;;;;10376148;28;20237;-72
2021/12/11 11:03:43;;;;;;;6.20;5.77;;;6.30;46.00;;;;;;10375443;28;20309;-72
2021/12/11 11:08:47;;;;;;;6.73;6.23;;;6.30;46.00;;;;;;10375811;28;20242;-72
2021/12/11 11:13:51;;;;;;;7.50;6.80;;;6.30;45.70;;;;;;10381371;28;20218;-72
2021/12/11 11:18:56;;;;;;;7.13;6.53;;;6.30;45.80;;;;;;10379578;28;20708;-72
2021/12/11 11:24:00;;;;;;;7.03;6.50;;;6.30;46.00;;;;;;10371338;28;20581;-72
2021/12/11 11:29:08;;;;;;;7.30;6.70;;;6.20;45.80;;;;;;10373114;28;20236;-72
2021/12/11 11:34:19;;;;;;;7.70;7.03;;;6.20;46.00;;;;;;10373357;28;20272;-71
2021/12/11 11:39:25;;;;;;;7.27;6.67;;;6.20;46.30;;;;;;10377840;28;20250;-71
2021/12/11 11:44:30;;;;;;;8.03;7.33;;;6.20;46.10;;;;;;10375524;28;20328;-71
2021/12/11 11:49:35;;;;;;;8.17;7.47;;;6.20;46.00;;;;;;10379838;28;20233;-71
2021/12/11 11:54:42;;;;;;;7.50;6.90;;;6.20;46.10;;;;;;10376447;28;20736;-71
2021/12/11 11:59:46;;;;;;;8.40;7.60;;;6.20;46.10;;;;;;10375570;28;20241;-71
2021/12/11 12:04:54;;;;;;;8.37;7.67;;;6.10;46.00;;;;;;10376175;28;20680;-71
2021/12/11 12:10:00;;;;;;;8.37;7.67;;;6.10;47.00;;;;;;10382297;28;20617;-71
2021/12/11 12:15:06;;;;;;;9.40;8.50;;;6.10;46.20;;;;;;10379182;28;20242;-71
2021/12/11 12:20:15;;;;;;;9.07;8.27;;;6.10;46.30;;;;;;10379438;28;20321;-71
2021/12/11 12:25:19;;;;;;;9.20;8.40;;;6.10;46.40;;;;;;10380133;28;20217;-72
2021/12/11 12:30:26;;;;;;;11.13;10.10;;;6.10;46.10;;;;;;10378561;28;20612;-71
2021/12/11 12:35:34;;;;;;;12.07;10.87;;;6.10;46.20;;;;;;10373068;28;20584;-71
2021/12/11 12:40:45;;;;;;;12.60;11.40;;;6.10;46.40;;;;;;10370678;28;20755;-71
2021/12/11 12:45:52;;;;;;;11.67;10.50;;;6.00;46.20;;;;;;10374605;28;20238;-71
2021/12/11 12:51:00;;;;;;;11.27;10.17;;;6.00;46.40;;;;;;10376620;28;20227;-71
2021/12/11 12:56:07;;;;;;;11.20;10.20;;;6.10;46.40;;;;;;10378060;28;20224;-72
2021/12/11 13:01:34;;;;;;;11.67;10.57;;;6.10;46.40;;;;;;10369991;28;20232;-72
2021/12/11 13:06:42;;;;;;;12.53;11.33;;;6.10;46.20;;;;;;10368823;28;20296;-71
2021/12/11 13:11:48;;;;;;;12.20;11.00;;;6.00;46.20;;;;;;10373435;28;20612;-71
2021/12/11 13:16:57;;;;;;;12.77;11.57;;;6.10;46.30;;;;;;10369997;28;20230;-71
2021/12/11 13:22:08;;;;;;;12.23;11.03;;;6.10;46.30;;;;;;10362613;28;20234;-71
2021/12/11 13:27:12;;;;;;;12.10;10.93;;;6.10;46.20;;;;;;10367789;28;20232;-71
2021/12/11 13:32:18;;;;;;;12.97;11.77;;;6.00;46.10;;;;;;10370926;28;20573;-71
2021/12/11 13:37:26;;;;;;;11.93;10.73;;;6.00;46.20;;;;;;10357111;28;20309;-70
2021/12/11 13:42:32;;;;;;;13.70;12.30;;;6.10;46.50;;;;;;10367125;28;20244;-69
2021/12/11 13:47:37;;;;;;;13.90;12.50;;;6.10;46.30;;;;;;10371446;28;20225;-69
2021/12/11 13:52:42;;;;;;;14.00;12.57;;;6.10;46.20;;;;;;10368740;28;20237;-69
2021/12/11 13:57:45;;;;;;;15.90;14.30;;;6.20;46.20;;;;;;10369560;28;20234;-69
2021/12/11 14:02:49;;;;;;;14.40;13.00;;;6.20;46.10;;;;;;10365916;28;20241;-70
2021/12/11 14:07:54;;;;;;;15.73;14.13;;;6.20;46.10;;;;;;10371225;28;20591;-69
2021/12/11 14:12:58;;;;;;;15.33;13.80;;;6.20;46.00;;;;;;10372016;28;20232;-70
2021/12/11 14:18:01;;;;;;;14.83;13.33;;;6.20;46.00;;;;;;10374626;28;20609;-70
2021/12/11 14:23:10;;;;;;;14.43;13.00;;;6.20;46.00;;;;;;10372410;28;20227;-70
2021/12/11 14:28:17;;;;;;;13.37;12.00;;;6.20;46.10;;;;;;10366002;28;20230;-70
2021/12/11 14:33:21;;;;;;;14.57;13.17;;;6.20;46.00;;;;;;10371534;28;20245;-70
2021/12/11 14:38:26;;;;;;;13.33;12.13;;;6.20;45.80;;;;;;10364230;28;20249;-70
2021/12/11 14:43:29;;;;;;;14.03;12.73;;;6.20;46.00;;;;;;10368283;28;20241;-70
2021/12/11 14:48:33;;;;;;;14.47;13.07;;;6.20;46.00;;;;;;10370911;28;20652;-69
2021/12/11 14:53:40;;;;;;;14.93;12.63;;;6.20;46.10;;;;;;10369046;28;20711;-69
2021/12/11 14:58:45;;;;;;;14.23;12.93;;;6.20;46.20;;;;;;10365589;28;20349;-70
2021/12/11 15:03:50;;;;;;;14.17;12.83;;;6.20;46.00;;;;;;10370085;28;20309;-69
2021/12/11 15:08:55;;;;;;;14.00;12.70;;;6.20;45.80;;;;;;10390063;23;20237;-69
2021/12/11 15:14:00;;;;;;;16.40;14.70;;;6.20;46.00;;;;;;10308667;28;20586;-69
2021/12/11 15:19:04;;;;;;;16.27;14.67;;;6.30;46.00;;;;;;10297583;28;20618;-72
2021/12/11 15:24:09;;;;;;;20.30;18.30;;;6.30;45.90;;;;;;10274739;28;21023;-72
2021/12/11 15:29:16;;;;;;;17.60;15.80;;;6.30;45.80;;;;;;10277915;28;20232;-72
2021/12/11 15:34:20;;;;;;;15.70;13.97;;;6.30;45.70;;;;;;10279760;28;20232;-72
2021/12/11 15:39:28;;;;;;;16.67;14.80;;;6.30;45.70;;;;;;10279439;28;20246;-72
2021/12/11 15:44:40;;;;;;;14.83;13.43;;;6.20;45.70;;;;;;10279947;28;20231;-73
2021/12/11 15:49:44;;;;;;;15.57;13.97;;;6.20;45.70;;;;;;10284118;28;20235;-72
2021/12/11 15:54:48;;;;;;;15.53;13.97;;;6.20;45.70;;;;;;10278580;28;20227;-72
2021/12/11 15:59:53;;;;;;;14.90;13.47;;;6.20;45.80;;;;;;10279771;28;20231;-72
2021/12/11 16:04:57;;;;;;;14.87;13.47;;;6.20;45.90;;;;;;10280679;28;20223;-72
2021/12/11 16:10:02;;;;;;;14.67;13.37;;;6.20;45.90;;;;;;10276747;28;20235;-72
2021/12/11 16:15:08;;;;;;;14.47;13.07;;;6.20;45.90;;;;;;10280553;28;20227;-72
2021/12/11 16:20:23;;;;;;;13.43;12.23;;;6.20;45.80;;;;;;10280110;28;20240;-71
2021/12/11 16:25:30;;;;;;;14.70;13.27;;;6.30;45.80;;;;;;10277762;28;20605;-72
2021/12/11 16:30:37;;;;;;;16.83;15.03;;;6.30;45.80;;;;;;10279718;28;20242;-72
2021/12/11 16:35:45;;;;;;;16.27;14.77;;;6.30;45.90;;;;;;10275272;28;20603;-73
2021/12/11 16:41:11;;;;;;;15.03;13.53;;;6.40;45.80;;;;;;10276648;28;20250;-73
2021/12/11 16:46:15;;;;;;;15.37;13.87;;;6.40;45.50;;;;;;10277642;28;20227;-73
2021/12/11 16:51:18;;;;;;;14.90;13.50;;;6.40;45.40;;;;;;10276483;28;20286;-72
2021/12/11 16:56:26;;;;;;;15.17;13.53;;;6.40;45.40;;;;;;10276595;28;20235;-72
2021/12/11 17:01:34;;;;;;;15.50;13.93;;;6.40;45.50;;;;;;10276051;28;20248;-73
2021/12/11 17:06:41;;;;;;;14.97;13.57;;;6.50;45.60;;;;;;10276934;28;20224;-73
2021/12/11 17:11:46;;;;;;;15.53;14.03;;;6.40;45.40;;;;;;10276767;28;20235;-73
2021/12/11 17:16:50;;;;;;;15.97;14.50;;;6.50;45.50;;;;;;10277611;28;20239;-71
2021/12/11 17:21:54;;;;;;;14.50;13.20;;;6.50;45.50;;;;;;10275317;28;20302;-71
2021/12/11 17:27:00;;;;;;;15.77;14.30;;;6.50;45.40;;;;;;10274091;28;20228;-71
2021/12/11 17:32:05;;;;;;;16.00;14.50;;;6.50;45.30;;;;;;10276441;28;20236;-70
2021/12/11 17:37:09;;;;;;;16.73;15.13;;;6.50;45.30;;;;;;10273676;28;20254;-71
2021/12/11 17:42:14;;;;;;;15.60;14.07;;;6.50;45.30;;;;;;10275414;28;20248;-71
2021/12/11 17:47:17;;;;;;;14.83;13.43;;;6.50;45.20;;;;;;10273041;28;20230;-70
2021/12/11 17:52:26;;;;;;;16.53;14.97;;;6.50;45.10;;;;;;10275410;28;21149;-70
2021/12/11 17:57:31;;;;;;;17.97;16.27;;;6.50;45.10;;;;;;10274880;28;20602;-74
2021/12/11 18:02:36;;;;;;;16.83;15.13;;;6.50;45.10;;;;;;10274794;28;20263;-74
2021/12/11 18:07:48;;;;;;;16.83;15.23;;;6.40;45.10;;;;;;10278590;28;20280;-70
2021/12/11 18:13:06;;;;;;;15.03;13.53;;;6.40;45.10;;;;;;10275192;28;20994;-70
2021/12/11 18:18:14;;;;;;;14.10;12.77;;;6.40;45.00;;;;;;10270280;28;20743;-70
2021/12/11 18:23:18;;;;;;;15.70;14.20;;;6.40;45.00;;;;;;10274639;28;20239;-69
2021/12/11 18:28:23;;;;;;;16.47;14.87;;;6.40;44.90;;;;;;10275794;28;20244;-70
2021/12/11 18:33:27;;;;;;;16.40;14.70;;;6.30;44.80;;;;;;10276389;28;20236;-74
2021/12/11 18:38:30;;;;;;;16.67;15.07;;;6.20;44.90;;;;;;10270519;28;20235;-75
2021/12/11 18:43:38;;;;;;;14.80;13.50;;;6.20;45.10;;;;;;10273704;28;20227;-74
2021/12/11 18:48:43;;;;;;;17.73;16.13;;;6.10;44.90;;;;;;10273386;28;20699;-74
2021/12/11 18:53:49;;;;;;;18.20;16.50;;;6.20;45.10;;;;;;10276408;28;20231;-73
2021/12/11 18:59:00;;;;;;;16.03;14.43;;;6.20;44.90;;;;;;10276558;28;20236;-73
2021/12/11 19:04:07;;;;;;;16.30;14.73;;;6.20;45.40;;;;;;10279870;28;20602;-73
2021/12/11 19:09:11;;;;;;;18.03;16.43;;;6.10;44.40;;;;;;10284440;28;20243;-73
2021/12/11 19:14:18;;;;;;;16.37;14.77;;;6.10;44.40;;;;;;10281826;28;20236;-73
2021/12/11 19:19:22;;;;;;;17.30;15.60;;;6.00;45.10;;;;;;10281978;28;20238;-70
2021/12/11 19:24:27;;;;;;;14.87;13.47;;;5.90;44.40;;;;;;10278874;28;20236;-69
2021/12/11 19:29:50;;;;;;;13.70;12.50;;;5.90;44.50;;;;;;10279375;28;20240;-70
2021/12/11 19:34:54;;;;;;;17.07;15.33;;;5.90;44.30;;;;;;10283820;28;20621;-69
2021/12/11 19:40:00;;;;;;;16.63;15.03;;;5.80;44.20;;;;;;10279921;28;20223;-70
2021/12/11 19:45:07;;;;;;;16.43;14.87;;;5.80;44.20;;;;;;10277873;28;20228;-69
2021/12/11 19:50:12;;;;;;;14.73;13.37;;;5.80;44.10;;;;;;10277834;28;20234;-69
2021/12/11 19:55:19;;;;;;;14.03;12.83;;;5.80;44.10;;;;;;10256512;28;20229;-69
2021/12/11 20:00:27;;;;;;;15.10;13.70;;;5.70;43.80;;;;;;10267374;28;20257;-69
2021/12/11 20:05:33;;;;;;;13.30;12.10;;;5.70;43.60;;;;;;10270267;28;20232;-68
2021/12/11 20:10:40;;;;;;;14.30;12.87;;;5.60;43.80;;;;;;10274000;28;20242;-69
2021/12/11 20:15:48;;;;;;;13.30;12.10;;;5.50;43.90;;;;;;10275167;28;20235;-68
2021/12/11 20:20:55;;;;;;;14.37;13.00;;;5.50;44.00;;;;;;10276388;28;20613;-69
2021/12/11 20:25:59;;;;;;;15.13;13.70;;;5.50;44.00;;;;;;10274694;28;20228;-69
2021/12/11 20:31:08;;;;;;;16.13;14.63;;;5.50;44.00;;;;;;10275336;28;20224;-69
2021/12/11 20:36:12;;;;;;;14.00;12.60;;;5.40;43.60;;;;;;10277723;28;20231;-69
2021/12/11 20:41:18;;;;;;;16.93;15.10;;;5.30;43.70;;;;;;10276706;28;20896;-69
2021/12/11 20:46:23;;;;;;;14.17;12.77;;;5.30;43.70;;;;;;10274853;28;21750;-69
2021/12/11 20:51:30;;;;;;;16.27;13.70;;;5.30;43.60;;;;;;10274864;28;20239;-69
2021/12/11 20:56:34;;;;;;;15.57;14.10;;;5.20;43.80;;;;;;10277009;28;20235;-69
2021/12/11 21:01:40;;;;;;;16.67;15.07;;;5.10;43.80;;;;;;10269001;28;20236;-69
2021/12/11 21:06:48;;;;;;;14.83;13.40;;;5.10;43.70;;;;;;10272295;28;20759;-70
2021/12/11 21:11:55;;;;;;;15.03;13.63;;;5.00;43.90;;;;;;10271678;28;20240;-69
2021/12/11 21:17:04;;;;;;;19.07;17.17;;;4.90;44.00;;;;;;10269081;28;20228;-70
2021/12/11 21:22:10;;;;;;;18.77;16.73;;;4.90;44.00;;;;;;10268752;28;20228;-70
2021/12/11 21:27:17;;;;;;;18.03;16.33;;;4.80;44.00;;;;;;10271101;28;20227;-70
2021/12/11 21:32:25;;;;;;;18.40;16.57;;;4.80;44.10;;;;;;10270847;28;20231;-70
2021/12/11 21:37:30;;;;;;;19.63;17.63;;;4.70;44.20;;;;;;10266129;28;20231;-70
2021/12/11 21:42:36;;;;;;;18.20;16.43;;;4.60;44.20;;;;;;10269159;28;20240;-70
2021/12/11 21:47:45;;;;;;;20.50;18.40;;;4.60;44.30;;;;;;10272304;28;20259;-70
2021/12/11 21:52:49;;;;;;;19.73;17.63;;;4.50;44.40;;;;;;10270843;28;20239;-69
2021/12/11 21:57:54;;;;;;;19.90;17.83;;;4.50;44.70;;;;;;10270741;28;21085;-70
2021/12/11 22:03:02;;;;;;;20.47;18.33;;;4.60;44.70;;;;;;10261819;28;20289;-69
2021/12/11 22:08:08;;;;;;;18.17;16.37;;;4.60;44.70;;;;;;10265396;28;20223;-70
2021/12/11 22:13:12;;;;;;;19.17;17.27;;;4.60;44.70;;;;;;10270061;28;20231;-71
2021/12/11 22:18:17;;;;;;;19.00;17.00;;;4.60;44.80;;;;;;10274476;28;20232;-71
2021/12/11 22:23:23;;;;;;;18.77;16.93;;;4.70;44.80;;;;;;10275800;28;20242;-71
2021/12/11 22:28:28;;;;;;;15.37;13.77;;;4.70;44.90;;;;;;10271633;28;20266;-70
2021/12/11 22:33:33;;;;;;;15.90;14.33;;;4.70;45.00;;;;;;10269140;28;20237;-70
2021/12/11 22:38:39;;;;;;;17.03;15.20;;;4.70;45.00;;;;;;10266861;28;20240;-70
2021/12/11 22:43:45;;;;;;;17.23;15.43;;;4.70;45.10;;;;;;10270013;28;20254;-70
2021/12/11 22:48:52;;;;;;;17.80;16.00;;;4.70;45.00;;;;;;10268865;28;20723;-70
2021/12/11 22:53:58;;;;;;;16.80;15.10;;;4.80;45.00;;;;;;10272357;28;20663;-71
2021/12/11 22:59:07;;;;;;;17.57;15.83;;;4.70;44.90;;;;;;10268215;28;20232;-69
2021/12/11 23:04:16;;;;;;;18.73;16.73;;;4.80;45.00;;;;;;10272026;28;20221;-70
2021/12/11 23:09:23;;;;;;;17.63;15.73;;;4.80;45.10;;;;;;10272247;28;20327;-70
2021/12/11 23:14:30;;;;;;;17.67;15.93;;;4.80;45.10;;;;;;10272278;28;20228;-70
2021/12/11 23:19:40;;;;;;;18.10;16.20;;;4.70;45.20;;;;;;10269013;28;20243;-70
2021/12/11 23:24:47;;;;;;;15.43;14.00;;;4.70;45.20;;;;;;10271400;28;20244;-70
2021/12/11 23:29:54;;;;;;;16.23;14.77;;;4.70;45.30;;;;;;10269519;28;20236;-69
2021/12/11 23:35:01;;;;;;;18.40;16.53;;;4.70;45.50;;;;;;10270163;28;20232;-73
2021/12/11 23:40:12;;;;;;;17.23;15.43;;;4.80;45.60;;;;;;10271919;28;20232;-72
2021/12/11 23:45:20;;;;;;;16.60;15.00;;;4.80;45.60;;;;;;10275137;28;20244;-73
2021/12/11 23:50:30;;;;;;;15.20;13.70;;;4.80;45.60;;;;;;10278473;28;20239;-73
2021/12/11 23:55:38;;;;;;;16.23;14.67;;;5.00;45.80;;;;;;10277837;28;20231;-71
